Main page
METAR-TAF:

METAR-TAF

Airports :

Niamtougou, Togo

Niamtougou International Airport

latitude: 09-46N, longitude: 001-06E, elevation: 342 m

Current weather observation

The report was made 1 hour and 18 minutes ago, at 18:00 UTC
Wind 2 kt from the Northwest
Temperature 29°C
Humidity 55%
Pressure 1015 hPa
Visibility 10 km or more
Few clouds at a height of 700 ft
Few clouds at a height of 1600 ft, Cumulonimbus.

METAR: DXNG 211800Z 32002KT 9999 FEW007 FEW016CB 29/19 Q1015 NOSIG

Time: 19:18 (19:18 UTC)

Forecast

The report was made 2 hours and 18 minutes ago, at 17:00 UTC
Forecast valid from 21 at 18 UTC to 22 at 18 UTC
Wind 5 kt from variable directions
Visibility 10 km or more
Few clouds at a height of 1300 ft

TAF: DXNG 211700Z 2118/2218 VRB05KT 9999 FEW013

Weather observations and forecasts of more than 4000 airports (METAR and TAF reports).

The available stations are represented by yellow and red dots on the map.

Hover mouse over dot to see the name of the station.

Then click to see weather observations and forecasts.

To change the map : click on the green buttons with a black cross to zoom in, on the green button with a dash to zoom out, or on the green arrows for adjacent maps.


METAR-TAF: